Flight Track Log - Related Links

Times and Time Zones

All times are in EDT time to prevent confusion due to time zone crossing. See the RPA3108 flight status page for this flight to view local times or setup timezone preferences in your user account.

Time Position Orientation Groundspeed Altitude Reporting Facility
EDT Latitude Longitude Course Direction KTS MPH feet Rate Location/Type
Sun 07:10:38 AM 32.9244 -79.9872 28° Northeast 139 160 2,000  Level Jacksonville Center
Sun 07:11:38 AM 32.9478 -79.9222 67° East 167 192 3,700 2,150 Climbing Jacksonville Center
Sun 07:12:00 AM 33.0721 -79.5743 54° Northeast  Level FlightAware Approximate
Sun 07:12:38 AM 32.9903 -79.8564 52° Northeast 206 237 6,300  Level Jacksonville Center
Sun 07:13:00 AM 33.1353 -79.4690 54° Northeast  Level FlightAware Approximate
Sun 07:13:38 AM 33.0533 -79.7947 39° Northeast 246 283 8,500  Level Jacksonville Center
Sun 07:14:00 AM 33.2011 -79.3660 28° Northeast  Level FlightAware Approximate
Sun 07:14:38 AM 33.1228 -79.7328 37° Northeast 281 323 10,900  Level Jacksonville Center
Sun 07:15:00 AM 33.2970 -79.3050 28° Northeast  Level FlightAware Approximate
Sun 07:15:38 AM 33.1942 -79.6658 38° Northeast 311 358 13,100  Level Jacksonville Center
Sun 07:16:38 AM 33.2736 -79.5908 38° Northeast 336 387 15,300 2,250 Climbing Jacksonville Center
Sun 07:17:38 AM 33.3550 -79.5158 38° Northeast 354 407 17,600 2,300 Climbing Jacksonville Center
Sun 07:18:38 AM 33.4364 -79.4381 39° Northeast 369 425 19,900 2,000 Climbing Jacksonville Center
Sun 07:19:38 AM 33.5219 -79.3572 38° Northeast 374 430 21,600 1,750 Climbing Jacksonville Center
Sun 07:20:38 AM 33.6092 -79.2742 38° Northeast 386 444 23,400 1,500 Climbing Jacksonville Center
Sun 07:21:38 AM 33.7028 -79.1878 38° Northeast 405 466 24,600 1,550 Climbing Jacksonville Center
Sun 07:22:38 AM 33.7942 -79.1017 38° Northeast 411 473 26,500 1,600 Climbing Jacksonville Center
Sun 07:23:38 AM 33.8872 -79.0100 39° Northeast 416 479 27,800 1,059 Climbing Jacksonville Center
Sun 07:26:02 AM 34.1231 -78.7853 38° Northeast 461 531 30,100 971 Climbing Washington Center
Sun 07:27:02 AM 34.2256 -78.6889 38° Northeast 461 531 31,100 1,100 Climbing Washington Center
Sun 07:28:02 AM 34.3156 -78.6017 39° Northeast 461 531 32,300 958 Climbing Washington Center
Sun 07:29:01 AM 34.4158 -78.5072 38° Northeast 456 525 33,000 350 Climbing Washington Center
Sun 07:30:02 AM 34.5164 -78.4075 39° Northeast 456 525 33,000  Level Washington Center
Sun 07:31:02 AM 34.6144 -78.3125 39° Northeast 456 525 33,000  Level Washington Center
Sun 07:32:02 AM 34.7147 -78.2147 39° Northeast 456 525 33,000  Level Washington Center
Sun 07:33:02 AM 34.8128 -78.1192 39° Northeast 450 518 33,000  Level Washington Center
Sun 07:34:03 AM 34.8906 -77.9975 52° Northeast 450 518 33,000  Level Washington Center
Sun 07:35:01 AM 34.9122 -77.8436 80° East 434 499 33,000  Level Washington Center
Sun 07:36:02 AM 34.9611 -77.6828 70° East 446 513 33,000  Level Washington Center
Sun 07:37:03 AM 35.0625 -77.5992 34° Northeast 420 483 33,000  Level Washington Center
Sun 07:38:01 AM 35.1703 -77.5256 29° Northeast 420 483 33,000  Level Washington Center
Sun 07:39:01 AM 35.2778 -77.4519 29° Northeast 432 497 33,000  Level Washington Center
Sun 07:40:02 AM 35.3833 -77.3778 30° Northeast 438 504 33,000  Level Washington Center
Sun 07:41:02 AM 35.4886 -77.3064 29° Northeast 438 504 33,000  Level Washington Center
Sun 07:42:01 AM 35.5939 -77.2319 30° Northeast 438 504 33,000  Level Washington Center
Sun 07:43:02 AM 35.7014 -77.1575 29° Northeast 433 498 33,000  Level Washington Center
Sun 07:44:02 AM 35.7939 -77.0953 29° Northeast 427 491 33,000  Level Washington Center
Sun 07:45:01 AM 35.8972 -77.0228 30° Northeast 427 491 33,000  Level Washington Center
Sun 07:46:01 AM 36.0044 -76.9478 29° Northeast 427 491 33,000  Level Washington Center
Sun 07:47:02 AM 36.1075 -76.8750 30° Northeast 427 491 33,000  Level Washington Center
Sun 07:48:03 AM 36.2106 -76.8019 30° Northeast 422 486 33,000  Level Washington Center
Sun 07:49:03 AM 36.3133 -76.7314 29° Northeast 422 486 33,000  Level Washington Center
Sun 07:50:02 AM 36.4183 -76.6581 29° Northeast 422 486 33,000  Level Washington Center
Sun 07:51:02 AM 36.5211 -76.5844 30° Northeast 422 486 33,000 -454 Level Washington Center
Sun 07:52:01 AM 36.6261 -76.5106 29° Northeast 422 486 32,100 -1,091 Descending Washington Center
Sun 07:53:03 AM 36.7353 -76.4264 32° Northeast 422 486 30,800 -1,300 Descending Washington Center
Sun 07:54:01 AM 36.8294 -76.3600 29° Northeast 430 495 29,500 -915 Descending Washington Center
Sun 07:55:01 AM 36.9322 -76.2856 30° Northeast 423 487 29,000 -250 Descending Washington Center
Sun 07:56:01 AM 37.0347 -76.2136 29° Northeast 430 495 29,000  Level Washington Center
Sun 07:57:03 AM 37.1500 -76.1339 29° Northeast 423 487 29,000  Level Washington Center
Sun 07:58:01 AM 37.2503 -76.0614 30° Northeast 423 487 29,000  Level Washington Center
Sun 07:59:01 AM 37.3486 -75.9889 30° Northeast 418 481 29,000  Level Washington Center
Sun 08:00:02 AM 37.4489 -75.9161 30° Northeast 418 481 29,000  Level Washington Center
Sun 08:01:02 AM 37.5514 -75.8406 30° Northeast 418 481 29,000 -50 Level Washington Center
Sun 08:02:01 AM 37.6517 -75.7703 29° Northeast 423 487 28,900 -958 Descending Washington Center
Sun 08:03:01 AM 37.7519 -75.6969 30° Northeast 423 487 27,100 -1,587 Descending Washington Center
Sun 08:04:02 AM 37.8458 -75.6233 32° Northeast 413 475 25,700 -1,388 Descending Washington Center
Sun 08:05:02 AM 37.9375 -75.5575 30° Northeast 395 455 24,300 -1,388 Descending Washington Center
Sun 08:06:03 AM 38.0292 -75.4889 31° Northeast 389 448 22,900 -1,400 Descending Washington Center
Sun 08:07:02 AM 38.1189 -75.4256 29° Northeast 379 436 21,500 -1,400 Descending Washington Center
Sun 08:08:03 AM 38.2083 -75.3672 27° Northeast 369 425 20,100 -1,462 Descending Washington Center
Sun 08:09:01 AM 38.2978 -75.3114 26° Northeast 362 417 18,600 -1,210 Descending Washington Center
Sun 08:10:02 AM 38.3769 -75.2633 25° Northeast 351 404 17,700 -1,131 Descending Washington Center
Sun 08:11:03 AM 38.4603 -75.2072 28° Northeast 346 398 16,300 -1,339 Descending Washington Center
Sun 08:12:03 AM 38.5433 -75.1564 26° Northeast 336 387 15,000 -712 Descending Washington Center
Sun 08:13:01 AM 38.6267 -75.1028 27° Northeast 331 381 14,900 -50 Descending Washington Center
Sun 08:14:02 AM 38.7014 -75.0517 28° Northeast 319 367 14,900 -197 Level Washington Center
Sun 08:15:03 AM 38.7806 -75.0058 24° Northeast 308 354 14,500 -958 Descending Washington Center
Sun 08:16:01 AM 38.8553 -74.9572 27° Northeast 303 349 13,000 -814 Descending Washington Center
Sun 08:17:01 AM 38.9300 -74.9086 27° Northeast 303 349 12,900 -50 Descending Washington Center
Sun 08:18:01 AM 39.0028 -74.8597 28° Northeast 303 349 12,900  Level Washington Center
Sun 08:19:01 AM 39.0775 -74.8161 24° Northeast 298 343 12,900 -197 Level Washington Center
Sun 08:20:03 AM 39.1608 -74.8233 356° North 286 329 12,500 -1,075 Descending Washington Center
Sun 08:21:54 AM 39.3167 -74.8833 343° North 289 333 9,800 -1,186 Descending Philadelphia TRACON
Sun 08:23:00 AM 39.4000 -74.9167 343° North 288 331 9,000 -550 Descending Philadelphia TRACON
Sun 08:23:54 AM 39.4667 -74.9500 339° North 285 328 8,700 -550 Descending Philadelphia TRACON
Sun 08:25:00 AM 39.5000 -75.0167 303° West 237 273 7,900 -810 Descending Philadelphia TRACON
Sun 08:26:00 AM 39.4833 -75.1167 258° West 250 288 7,000 -446 Descending Philadelphia TRACON
Sun 08:27:01 AM 39.4833 -75.2000 270° West 240 276 7,000  Level Philadelphia TRACON
Sun 08:28:06 AM 39.5333 -75.2500 322° Northwest 216 249 7,000 -288 Level Philadelphia TRACON
Sun 08:29:06 AM 39.5833 -75.2833 333° Northwest 211 243 6,400 -522 Descending Philadelphia TRACON
Sun 08:30:01 AM 39.6333 -75.3000 346° North 211 243 6,000 -209 Descending Philadelphia TRACON
Sun 08:31:01 AM 39.7000 -75.3167 349° North 211 243 6,000  Level Philadelphia TRACON
Sun 08:32:01 AM 39.7500 -75.3333 346° North 211 243 6,000  Level Philadelphia TRACON
Sun 08:33:01 AM 39.8000 -75.3833 322° Northwest 222 255 6,000  Level Philadelphia TRACON
Sun 08:34:01 AM 39.7667 -75.4333 229° Southwest 213 245 6,000  Level Philadelphia TRACON
Sun 08:35:07 AM 39.7000 -75.4833 210° Southwest 212 244 6,000  Level Philadelphia TRACON
Sun 08:36:07 AM 39.7167 -75.4333 67° East 200 230 6,000  Level Philadelphia TRACON
Sun 08:37:01 AM 39.7333 -75.4833 293° West 224 258 6,000  Level Philadelphia TRACON
Sun 08:38:01 AM 39.7167 -75.5667 255° West 227 261 6,000 -429 Level Philadelphia TRACON
Sun 08:39:07 AM 39.7000 -75.6500 255° West 197 227 5,100 -500 Descending Philadelphia TRACON
Sun 08:40:01 AM 39.6833 -75.7000 247° West 202 232 5,000 -316 Descending Philadelphia TRACON
Sun 08:41:01 AM 39.7167 -75.7333 322° Northwest 182 209 4,500 -526 Descending Philadelphia TRACON
Sun 08:41:55 AM 39.7500 -75.7000 38° Northeast 160 184 4,000 -263 Descending Philadelphia TRACON
Sun 08:42:55 AM 39.7833 -75.6667 38° Northeast 160 184 4,000  Level Philadelphia TRACON
Sun 08:43:55 AM 39.8000 -75.6167 67° East 157 181 4,000  Level Philadelphia TRACON
Sun 08:44:55 AM 39.8000 -75.5500 90° East 157 181 4,000 -105 Level Philadelphia TRACON
Sun 08:45:49 AM 39.8167 -75.5167 57° Northeast 156 180 3,800 -579 Descending Philadelphia TRACON
Sun 08:46:49 AM 39.8333 -75.4500 72° East 154 177 2,900 -905 Descending Philadelphia TRACON
Sun 08:47:55 AM 39.8333 -75.3833 90° East 156 180 1,900 -810 Descending Philadelphia TRACON
Sun 08:48:55 AM 39.8500 -75.3500 57° Northeast 119 137 1,200 -700 Descending Philadelphia TRACON
Sun 08:49:55 AM 39.8500 -75.3000 90° East 125 144 500 -700 Descending Philadelphia TRACON

Login

Don't have an account? Register now (free) for customized features, flight alerts, and more!